sensor_id;sensor_type;location;lat;lon;timestamp;temperature;humidity
61201;DHT22;47065;52.898;6.992;2023-06-01T00:02:06;12.00;99.90
61201;DHT22;47065;52.898;6.992;2023-06-01T00:04:31;12.00;99.90
61201;DHT22;47065;52.898;6.992;2023-06-01T00:06:57;12.00;99.90
61201;DHT22;47065;52.898;6.992;2023-06-01T00:09:26;12.00;99.90
61201;DHT22;47065;52.898;6.992;2023-06-01T00:11:52;12.00;99.90
61201;DHT22;47065;52.898;6.992;2023-06-01T00:14:18;12.00;99.90
61201;DHT22;47065;52.898;6.992;2023-06-01T00:16:44;12.00;99.90
61201;DHT22;47065;52.898;6.992;2023-06-01T00:19:10;12.00;99.90
61201;DHT22;47065;52.898;6.992;2023-06-01T00:21:36;12.00;99.90
61201;DHT22;47065;52.898;6.992;2023-06-01T00:24:02;12.00;99.90
61201;DHT22;47065;52.898;6.992;2023-06-01T00:26:28;12.00;99.90
61201;DHT22;47065;52.898;6.992;2023-06-01T00:28:57;12.00;99.90
61201;DHT22;47065;52.898;6.992;2023-06-01T00:31:23;12.00;99.90
61201;DHT22;47065;52.898;6.992;2023-06-01T00:33:49;12.00;99.90
61201;DHT22;47065;52.898;6.992;2023-06-01T00:36:16;12.00;99.90
61201;DHT22;47065;52.898;6.992;2023-06-01T00:38:41;12.00;99.90
61201;DHT22;47065;52.898;6.992;2023-06-01T00:41:07;12.00;99.90
61201;DHT22;47065;52.898;6.992;2023-06-01T00:43:33;12.00;99.90
61201;DHT22;47065;52.898;6.992;2023-06-01T00:45:58;12.00;99.90
61201;DHT22;47065;52.898;6.992;2023-06-01T00:48:24;12.00;99.90
61201;DHT22;47065;52.898;6.992;2023-06-01T00:50:50;11.90;99.90
61201;DHT22;47065;52.898;6.992;2023-06-01T00:53:18;11.90;99.90
61201;DHT22;47065;52.898;6.992;2023-06-01T00:55:45;11.90;99.90
61201;DHT22;47065;52.898;6.992;2023-06-01T00:58:12;11.90;99.90
61201;DHT22;47065;52.898;6.992;2023-06-01T01:00:38;11.90;99.90
61201;DHT22;47065;52.898;6.992;2023-06-01T01:03:05;11.80;99.90
61201;DHT22;47065;52.898;6.992;2023-06-01T01:05:36;11.80;99.90
61201;DHT22;47065;52.898;6.992;2023-06-01T01:08:28;11.80;99.90
61201;DHT22;47065;52.898;6.992;2023-06-01T01:11:02;11.80;99.90
61201;DHT22;47065;52.898;6.992;2023-06-01T01:13:40;11.80;99.90
61201;DHT22;47065;52.898;6.992;2023-06-01T01:16:27;11.80;99.90
61201;DHT22;47065;52.898;6.992;2023-06-01T01:21:46;11.80;99.90
61201;DHT22;47065;52.898;6.992;2023-06-01T01:24:43;11.80;99.90
61201;DHT22;47065;52.898;6.992;2023-06-01T01:30:03;11.80;99.90
61201;DHT22;47065;52.898;6.992;2023-06-01T01:32:32;11.80;99.90
61201;DHT22;47065;52.898;6.992;2023-06-01T01:35:01;11.80;99.90
61201;DHT22;47065;52.898;6.992;2023-06-01T01:37:27;11.80;99.90
61201;DHT22;47065;52.898;6.992;2023-06-01T01:39:52;11.80;99.90
61201;DHT22;47065;52.898;6.992;2023-06-01T01:42:18;11.80;99.90
61201;DHT22;47065;52.898;6.992;2023-06-01T01:44:44;11.80;99.90
61201;DHT22;47065;52.898;6.992;2023-06-01T01:49:49;11.80;99.90
61201;DHT22;47065;52.898;6.992;2023-06-01T01:52:26;11.80;99.90
61201;DHT22;47065;52.898;6.992;2023-06-01T01:54:54;11.80;99.90
61201;DHT22;47065;52.898;6.992;2023-06-01T01:57:22;11.70;99.90
61201;DHT22;47065;52.898;6.992;2023-06-01T01:59:49;11.80;99.90
61201;DHT22;47065;52.898;6.992;2023-06-01T02:02:15;11.80;99.90
61201;DHT22;47065;52.898;6.992;2023-06-01T02:04:44;11.80;99.90
61201;DHT22;47065;52.898;6.992;2023-06-01T02:07:12;11.80;99.90
61201;DHT22;47065;52.898;6.992;2023-06-01T02:09:38;11.80;99.90
61201;DHT22;47065;52.898;6.992;2023-06-01T02:12:05;11.80;99.90
61201;DHT22;47065;52.898;6.992;2023-06-01T02:14:30;11.80;99.90
61201;DHT22;47065;52.898;6.992;2023-06-01T02:16:56;11.80;99.90
61201;DHT22;47065;52.898;6.992;2023-06-01T02:19:23;11.80;99.90
61201;DHT22;47065;52.898;6.992;2023-06-01T02:21:48;11.80;99.90
61201;DHT22;47065;52.898;6.992;2023-06-01T02:24:14;11.80;99.90
61201;DHT22;47065;52.898;6.992;2023-06-01T02:26:40;11.80;99.90
61201;DHT22;47065;52.898;6.992;2023-06-01T02:29:05;11.80;99.90
61201;DHT22;47065;52.898;6.992;2023-06-01T02:31:32;11.80;99.90
61201;DHT22;47065;52.898;6.992;2023-06-01T02:33:58;11.70;99.90
61201;DHT22;47065;52.898;6.992;2023-06-01T02:36:26;11.70;99.90
61201;DHT22;47065;52.898;6.992;2023-06-01T02:38:51;11.70;99.90
61201;DHT22;47065;52.898;6.992;2023-06-01T02:41:17;11.70;99.90
61201;DHT22;47065;52.898;6.992;2023-06-01T02:43:43;11.70;99.90
61201;DHT22;47065;52.898;6.992;2023-06-01T02:46:08;11.70;99.90
61201;DHT22;47065;52.898;6.992;2023-06-01T02:48:34;11.70;99.90
61201;DHT22;47065;52.898;6.992;2023-06-01T02:51:00;11.60;99.90
61201;DHT22;47065;52.898;6.992;2023-06-01T02:53:27;11.60;99.90
61201;DHT22;47065;52.898;6.992;2023-06-01T02:55:53;11.60;99.90
61201;DHT22;47065;52.898;6.992;2023-06-01T02:58:19;11.60;99.90
61201;DHT22;47065;52.898;6.992;2023-06-01T03:00:45;11.60;99.90
61201;DHT22;47065;52.898;6.992;2023-06-01T03:03:12;11.60;99.90
61201;DHT22;47065;52.898;6.992;2023-06-01T03:05:38;11.60;99.90
61201;DHT22;47065;52.898;6.992;2023-06-01T03:08:04;11.60;99.90
61201;DHT22;47065;52.898;6.992;2023-06-01T03:10:32;11.50;99.90
61201;DHT22;47065;52.898;6.992;2023-06-01T03:12:57;11.60;99.90
61201;DHT22;47065;52.898;6.992;2023-06-01T03:15:23;11.50;99.90
61201;DHT22;47065;52.898;6.992;2023-06-01T03:17:49;11.50;99.90
61201;DHT22;47065;52.898;6.992;2023-06-01T03:20:14;11.50;99.90
61201;DHT22;47065;52.898;6.992;2023-06-01T03:22:44;11.50;99.90
61201;DHT22;47065;52.898;6.992;2023-06-01T03:25:11;11.50;99.90
61201;DHT22;47065;52.898;6.992;2023-06-01T03:27:39;11.50;99.90
61201;DHT22;47065;52.898;6.992;2023-06-01T03:30:05;11.50;99.90
61201;DHT22;47065;52.898;6.992;2023-06-01T03:32:39;11.50;99.90
61201;DHT22;47065;52.898;6.992;2023-06-01T03:35:05;11.50;99.90
61201;DHT22;47065;52.898;6.992;2023-06-01T03:37:35;11.50;99.90
61201;DHT22;47065;52.898;6.992;2023-06-01T03:40:01;11.40;99.90
61201;DHT22;47065;52.898;6.992;2023-06-01T03:42:36;11.40;99.90
61201;DHT22;47065;52.898;6.992;2023-06-01T03:45:03;11.50;99.90
61201;DHT22;47065;52.898;6.992;2023-06-01T03:47:30;11.40;99.90
61201;DHT22;47065;52.898;6.992;2023-06-01T03:49:56;11.50;99.90
61201;DHT22;47065;52.898;6.992;2023-06-01T03:52:24;11.50;99.90
61201;DHT22;47065;52.898;6.992;2023-06-01T03:54:50;11.40;99.90
61201;DHT22;47065;52.898;6.992;2023-06-01T03:57:16;11.40;99.90
61201;DHT22;47065;52.898;6.992;2023-06-01T03:59:41;11.40;99.90
61201;DHT22;47065;52.898;6.992;2023-06-01T04:02:07;11.40;99.90
61201;DHT22;47065;52.898;6.992;2023-06-01T04:04:35;11.40;99.90
61201;DHT22;47065;52.898;6.992;2023-06-01T04:07:01;11.40;99.90
61201;DHT22;47065;52.898;6.992;2023-06-01T04:09:31;11.40;99.90
61201;DHT22;47065;52.898;6.992;2023-06-01T04:11:57;11.40;99.90
61201;DHT22;47065;52.898;6.992;2023-06-01T04:14:23;11.40;99.90
61201;DHT22;47065;52.898;6.992;2023-06-01T04:16:48;11.40;99.90
61201;DHT22;47065;52.898;6.992;2023-06-01T04:19:14;11.40;99.90
61201;DHT22;47065;52.898;6.992;2023-06-01T04:21:40;11.40;99.90
61201;DHT22;47065;52.898;6.992;2023-06-01T04:24:05;11.40;99.90
61201;DHT22;47065;52.898;6.992;2023-06-01T04:26:31;11.40;99.90
61201;DHT22;47065;52.898;6.992;2023-06-01T04:29:00;11.40;99.90
61201;DHT22;47065;52.898;6.992;2023-06-01T04:31:28;11.40;99.90
61201;DHT22;47065;52.898;6.992;2023-06-01T04:33:54;11.40;99.90
61201;DHT22;47065;52.898;6.992;2023-06-01T04:36:22;11.40;99.90
61201;DHT22;47065;52.898;6.992;2023-06-01T04:38:51;11.40;99.90
61201;DHT22;47065;52.898;6.992;2023-06-01T04:41:23;11.40;99.90
61201;DHT22;47065;52.898;6.992;2023-06-01T04:43:51;11.40;99.90
61201;DHT22;47065;52.898;6.992;2023-06-01T04:46:22;11.40;99.90
61201;DHT22;47065;52.898;6.992;2023-06-01T04:48:51;11.40;99.90
61201;DHT22;47065;52.898;6.992;2023-06-01T04:51:17;11.40;99.90
61201;DHT22;47065;52.898;6.992;2023-06-01T04:53:48;11.40;99.90
61201;DHT22;47065;52.898;6.992;2023-06-01T04:56:18;11.40;99.90
61201;DHT22;47065;52.898;6.992;2023-06-01T04:58:45;11.40;99.90
61201;DHT22;47065;52.898;6.992;2023-06-01T05:01:13;11.40;99.90
61201;DHT22;47065;52.898;6.992;2023-06-01T05:03:44;11.40;99.90
61201;DHT22;47065;52.898;6.992;2023-06-01T05:06:13;11.40;99.90
61201;DHT22;47065;52.898;6.992;2023-06-01T05:08:39;11.40;99.90
61201;DHT22;47065;52.898;6.992;2023-06-01T05:11:05;11.40;99.90
61201;DHT22;47065;52.898;6.992;2023-06-01T05:13:35;11.40;99.90
61201;DHT22;47065;52.898;6.992;2023-06-01T05:16:02;11.40;99.90
61201;DHT22;47065;52.898;6.992;2023-06-01T05:18:27;11.40;99.90
61201;DHT22;47065;52.898;6.992;2023-06-01T05:20:53;11.40;99.90
61201;DHT22;47065;52.898;6.992;2023-06-01T05:23:19;11.40;99.90
61201;DHT22;47065;52.898;6.992;2023-06-01T05:25:44;11.40;99.90
61201;DHT22;47065;52.898;6.992;2023-06-01T05:28:10;11.40;99.90
61201;DHT22;47065;52.898;6.992;2023-06-01T05:30:36;11.40;99.90
61201;DHT22;47065;52.898;6.992;2023-06-01T05:33:02;11.40;99.90
61201;DHT22;47065;52.898;6.992;2023-06-01T05:35:29;11.40;99.90
61201;DHT22;47065;52.898;6.992;2023-06-01T05:37:54;11.40;99.90
61201;DHT22;47065;52.898;6.992;2023-06-01T05:40:20;11.40;99.90
61201;DHT22;47065;52.898;6.992;2023-06-01T05:42:46;11.40;99.90
61201;DHT22;47065;52.898;6.992;2023-06-01T05:45:12;11.50;99.90
61201;DHT22;47065;52.898;6.992;2023-06-01T05:47:37;11.50;99.90
61201;DHT22;47065;52.898;6.992;2023-06-01T05:50:03;11.50;99.90
61201;DHT22;47065;52.898;6.992;2023-06-01T05:52:30;11.50;99.90
61201;DHT22;47065;52.898;6.992;2023-06-01T05:54:56;11.50;99.90
61201;DHT22;47065;52.898;6.992;2023-06-01T05:57:22;11.60;99.90
61201;DHT22;47065;52.898;6.992;2023-06-01T05:59:47;11.60;99.90
61201;DHT22;47065;52.898;6.992;2023-06-01T06:02:14;11.60;99.90
61201;DHT22;47065;52.898;6.992;2023-06-01T06:04:40;11.60;99.90
61201;DHT22;47065;52.898;6.992;2023-06-01T06:07:06;11.60;99.90
61201;DHT22;47065;52.898;6.992;2023-06-01T06:09:33;11.60;99.90
61201;DHT22;47065;52.898;6.992;2023-06-01T06:11:58;11.60;99.90
61201;DHT22;47065;52.898;6.992;2023-06-01T06:14:25;11.60;99.90
61201;DHT22;47065;52.898;6.992;2023-06-01T06:16:50;11.60;99.90
61201;DHT22;47065;52.898;6.992;2023-06-01T06:19:16;11.60;99.90
61201;DHT22;47065;52.898;6.992;2023-06-01T06:21:42;11.60;99.90
61201;DHT22;47065;52.898;6.992;2023-06-01T06:24:08;11.60;99.90
61201;DHT22;47065;52.898;6.992;2023-06-01T06:26:34;11.70;99.90
61201;DHT22;47065;52.898;6.992;2023-06-01T06:29:00;11.70;99.90
61201;DHT22;47065;52.898;6.992;2023-06-01T06:31:26;11.80;99.90
61201;DHT22;47065;52.898;6.992;2023-06-01T06:33:51;11.80;99.90
61201;DHT22;47065;52.898;6.992;2023-06-01T06:36:17;11.80;99.90
61201;DHT22;47065;52.898;6.992;2023-06-01T06:38:44;11.80;99.90
61201;DHT22;47065;52.898;6.992;2023-06-01T06:41:10;11.80;99.90
61201;DHT22;47065;52.898;6.992;2023-06-01T06:43:35;11.90;99.90
61201;DHT22;47065;52.898;6.992;2023-06-01T06:46:01;11.90;99.90
61201;DHT22;47065;52.898;6.992;2023-06-01T06:48:27;12.00;99.90
61201;DHT22;47065;52.898;6.992;2023-06-01T06:50:53;12.00;99.90
61201;DHT22;47065;52.898;6.992;2023-06-01T06:53:18;12.10;99.90
61201;DHT22;47065;52.898;6.992;2023-06-01T06:55:44;12.10;99.90
61201;DHT22;47065;52.898;6.992;2023-06-01T06:58:10;12.10;99.90
61201;DHT22;47065;52.898;6.992;2023-06-01T07:00:36;12.20;99.90
61201;DHT22;47065;52.898;6.992;2023-06-01T07:03:02;12.20;99.90
61201;DHT22;47065;52.898;6.992;2023-06-01T07:05:29;12.30;99.90
61201;DHT22;47065;52.898;6.992;2023-06-01T07:07:54;12.30;99.90
61201;DHT22;47065;52.898;6.992;2023-06-01T07:10:20;12.40;99.90
61201;DHT22;47065;52.898;6.992;2023-06-01T07:12:46;12.40;99.90
61201;DHT22;47065;52.898;6.992;2023-06-01T07:15:12;12.50;99.90
61201;DHT22;47065;52.898;6.992;2023-06-01T07:17:37;12.50;99.90
61201;DHT22;47065;52.898;6.992;2023-06-01T07:20:04;12.50;99.90
61201;DHT22;47065;52.898;6.992;2023-06-01T07:22:33;12.50;99.90
61201;DHT22;47065;52.898;6.992;2023-06-01T07:24:59;12.50;99.90
61201;DHT22;47065;52.898;6.992;2023-06-01T07:27:25;12.50;99.90
61201;DHT22;47065;52.898;6.992;2023-06-01T07:29:52;12.50;99.90
61201;DHT22;47065;52.898;6.992;2023-06-01T07:32:24;12.50;99.90
61201;DHT22;47065;52.898;6.992;2023-06-01T07:34:50;12.50;99.90
61201;DHT22;47065;52.898;6.992;2023-06-01T07:37:16;12.50;99.90
61201;DHT22;47065;52.898;6.992;2023-06-01T07:39:47;12.50;99.90
61201;DHT22;47065;52.898;6.992;2023-06-01T07:42:13;12.50;99.90
61201;DHT22;47065;52.898;6.992;2023-06-01T07:44:38;12.60;99.90
61201;DHT22;47065;52.898;6.992;2023-06-01T07:47:04;12.60;99.90
61201;DHT22;47065;52.898;6.992;2023-06-01T07:49:30;12.60;99.90
61201;DHT22;47065;52.898;6.992;2023-06-01T07:51:55;12.60;99.90
61201;DHT22;47065;52.898;6.992;2023-06-01T07:54:22;12.60;99.90
61201;DHT22;47065;52.898;6.992;2023-06-01T07:56:47;12.60;99.90
61201;DHT22;47065;52.898;6.992;2023-06-01T07:59:13;12.70;99.90
61201;DHT22;47065;52.898;6.992;2023-06-01T08:01:38;12.70;99.90
61201;DHT22;47065;52.898;6.992;2023-06-01T08:04:04;12.70;99.90
61201;DHT22;47065;52.898;6.992;2023-06-01T08:06:30;12.70;99.90
61201;DHT22;47065;52.898;6.992;2023-06-01T08:09:02;12.80;99.90
61201;DHT22;47065;52.898;6.992;2023-06-01T08:11:28;12.80;99.90
61201;DHT22;47065;52.898;6.992;2023-06-01T08:13:54;12.90;99.90
61201;DHT22;47065;52.898;6.992;2023-06-01T08:16:19;12.90;99.90
61201;DHT22;47065;52.898;6.992;2023-06-01T08:18:46;13.00;99.90
61201;DHT22;47065;52.898;6.992;2023-06-01T08:21:12;13.00;99.90
61201;DHT22;47065;52.898;6.992;2023-06-01T08:23:37;13.00;99.90
61201;DHT22;47065;52.898;6.992;2023-06-01T08:26:04;13.00;99.90
61201;DHT22;47065;52.898;6.992;2023-06-01T08:28:29;13.00;99.90
61201;DHT22;47065;52.898;6.992;2023-06-01T08:30:57;13.00;99.90
61201;DHT22;47065;52.898;6.992;2023-06-01T08:33:23;13.00;99.90
61201;DHT22;47065;52.898;6.992;2023-06-01T08:35:48;13.00;99.90
61201;DHT22;47065;52.898;6.992;2023-06-01T08:38:14;13.00;99.90
61201;DHT22;47065;52.898;6.992;2023-06-01T08:40:40;13.00;99.90
61201;DHT22;47065;52.898;6.992;2023-06-01T08:43:19;12.90;99.90
61201;DHT22;47065;52.898;6.992;2023-06-01T08:45:46;12.90;99.90
61201;DHT22;47065;52.898;6.992;2023-06-01T08:48:17;12.90;99.90
61201;DHT22;47065;52.898;6.992;2023-06-01T08:50:48;12.90;99.90
61201;DHT22;47065;52.898;6.992;2023-06-01T08:53:17;12.90;99.90
61201;DHT22;47065;52.898;6.992;2023-06-01T08:55:45;12.90;99.90
61201;DHT22;47065;52.898;6.992;2023-06-01T08:58:12;12.90;99.90
61201;DHT22;47065;52.898;6.992;2023-06-01T09:00:38;12.90;99.90
61201;DHT22;47065;52.898;6.992;2023-06-01T09:03:04;12.90;99.90
61201;DHT22;47065;52.898;6.992;2023-06-01T09:05:30;12.90;99.90
61201;DHT22;47065;52.898;6.992;2023-06-01T09:07:55;12.90;99.90
61201;DHT22;47065;52.898;6.992;2023-06-01T09:10:24;13.00;99.90
61201;DHT22;47065;52.898;6.992;2023-06-01T09:12:54;13.00;99.90
61201;DHT22;47065;52.898;6.992;2023-06-01T09:15:21;13.00;99.90
61201;DHT22;47065;52.898;6.992;2023-06-01T09:17:51;13.10;99.90
61201;DHT22;47065;52.898;6.992;2023-06-01T09:20:28;13.10;99.90
61201;DHT22;47065;52.898;6.992;2023-06-01T09:22:54;13.10;99.90
61201;DHT22;47065;52.898;6.992;2023-06-01T09:25:28;13.20;99.90
61201;DHT22;47065;52.898;6.992;2023-06-01T09:27:56;13.20;99.90
61201;DHT22;47065;52.898;6.992;2023-06-01T09:30:24;13.20;99.90
61201;DHT22;47065;52.898;6.992;2023-06-01T09:32:51;13.20;99.90
61201;DHT22;47065;52.898;6.992;2023-06-01T09:35:37;13.20;99.90
61201;DHT22;47065;52.898;6.992;2023-06-01T09:38:04;13.20;99.90
61201;DHT22;47065;52.898;6.992;2023-06-01T09:40:32;13.20;99.90
61201;DHT22;47065;52.898;6.992;2023-06-01T09:42:58;13.10;99.90
61201;DHT22;47065;52.898;6.992;2023-06-01T09:45:24;13.00;99.90
61201;DHT22;47065;52.898;6.992;2023-06-01T09:47:51;13.00;99.90
61201;DHT22;47065;52.898;6.992;2023-06-01T09:50:34;13.00;99.90
61201;DHT22;47065;52.898;6.992;2023-06-01T09:53:00;13.00;99.90
61201;DHT22;47065;52.898;6.992;2023-06-01T09:55:26;13.00;99.90
61201;DHT22;47065;52.898;6.992;2023-06-01T09:57:52;13.00;99.90
61201;DHT22;47065;52.898;6.992;2023-06-01T10:00:22;13.00;99.90
61201;DHT22;47065;52.898;6.992;2023-06-01T10:02:51;13.20;99.90
61201;DHT22;47065;52.898;6.992;2023-06-01T10:05:17;13.30;99.90
61201;DHT22;47065;52.898;6.992;2023-06-01T10:07:44;13.40;99.90
61201;DHT22;47065;52.898;6.992;2023-06-01T10:10:13;13.40;99.90
61201;DHT22;47065;52.898;6.992;2023-06-01T10:12:40;13.40;99.90
61201;DHT22;47065;52.898;6.992;2023-06-01T10:15:06;13.40;99.90
61201;DHT22;47065;52.898;6.992;2023-06-01T10:17:34;13.40;99.90
61201;DHT22;47065;52.898;6.992;2023-06-01T10:20:01;13.40;99.90
61201;DHT22;47065;52.898;6.992;2023-06-01T10:22:29;13.40;99.90
61201;DHT22;47065;52.898;6.992;2023-06-01T10:24:59;13.40;99.90
61201;DHT22;47065;52.898;6.992;2023-06-01T10:28:26;13.40;99.90
61201;DHT22;47065;52.898;6.992;2023-06-01T10:30:20;13.40;99.90
61201;DHT22;47065;52.898;6.992;2023-06-01T10:32:47;13.40;99.90
61201;DHT22;47065;52.898;6.992;2023-06-01T10:40:41;13.40;99.90
61201;DHT22;47065;52.898;6.992;2023-06-01T10:43:07;13.40;99.90
61201;DHT22;47065;52.898;6.992;2023-06-01T10:48:04;13.40;99.90
61201;DHT22;47065;52.898;6.992;2023-06-01T10:50:30;13.50;99.90
61201;DHT22;47065;52.898;6.992;2023-06-01T10:52:56;13.50;99.90
61201;DHT22;47065;52.898;6.992;2023-06-01T10:55:23;13.50;99.90
61201;DHT22;47065;52.898;6.992;2023-06-01T10:57:49;13.50;99.90
61201;DHT22;47065;52.898;6.992;2023-06-01T11:00:26;13.50;99.90
61201;DHT22;47065;52.898;6.992;2023-06-01T11:03:04;13.60;99.90
61201;DHT22;47065;52.898;6.992;2023-06-01T11:05:50;13.70;99.90
61201;DHT22;47065;52.898;6.992;2023-06-01T11:13:28;13.70;99.90
61201;DHT22;47065;52.898;6.992;2023-06-01T11:21:21;13.90;99.90
61201;DHT22;47065;52.898;6.992;2023-06-01T11:23:47;13.90;99.90
61201;DHT22;47065;52.898;6.992;2023-06-01T11:26:15;14.00;99.90
61201;DHT22;47065;52.898;6.992;2023-06-01T11:28:42;14.00;99.90
61201;DHT22;47065;52.898;6.992;2023-06-01T11:31:15;14.00;99.90
61201;DHT22;47065;52.898;6.992;2023-06-01T11:33:49;14.10;99.90
61201;DHT22;47065;52.898;6.992;2023-06-01T11:36:21;14.10;99.90
61201;DHT22;47065;52.898;6.992;2023-06-01T11:38:50;14.20;99.90
61201;DHT22;47065;52.898;6.992;2023-06-01T11:41:16;14.20;99.90
61201;DHT22;47065;52.898;6.992;2023-06-01T11:43:44;14.30;99.90
61201;DHT22;47065;52.898;6.992;2023-06-01T11:46:10;14.40;99.90
61201;DHT22;47065;52.898;6.992;2023-06-01T11:48:36;14.40;99.90
61201;DHT22;47065;52.898;6.992;2023-06-01T11:51:02;14.50;99.90
61201;DHT22;47065;52.898;6.992;2023-06-01T11:53:29;14.50;99.90
61201;DHT22;47065;52.898;6.992;2023-06-01T11:55:57;14.50;99.90
61201;DHT22;47065;52.898;6.992;2023-06-01T11:58:29;14.60;99.90
61201;DHT22;47065;52.898;6.992;2023-06-01T12:00:56;14.60;99.90
61201;DHT22;47065;52.898;6.992;2023-06-01T12:03:23;14.60;99.90
61201;DHT22;47065;52.898;6.992;2023-06-01T12:05:52;14.70;99.90
61201;DHT22;47065;52.898;6.992;2023-06-01T12:08:22;14.70;99.90
61201;DHT22;47065;52.898;6.992;2023-06-01T12:10:51;14.80;99.90
61201;DHT22;47065;52.898;6.992;2023-06-01T12:13:19;14.80;99.90
61201;DHT22;47065;52.898;6.992;2023-06-01T12:15:45;14.80;99.90
61201;DHT22;47065;52.898;6.992;2023-06-01T12:18:11;14.80;99.90
61201;DHT22;47065;52.898;6.992;2023-06-01T12:20:42;14.80;99.90
61201;DHT22;47065;52.898;6.992;2023-06-01T12:25:57;14.80;99.90
61201;DHT22;47065;52.898;6.992;2023-06-01T12:28:26;14.80;99.90
61201;DHT22;47065;52.898;6.992;2023-06-01T12:31:15;14.80;99.90
61201;DHT22;47065;52.898;6.992;2023-06-01T12:33:42;14.90;99.90
61201;DHT22;47065;52.898;6.992;2023-06-01T12:36:31;14.90;99.90
61201;DHT22;47065;52.898;6.992;2023-06-01T12:38:58;14.90;99.90
61201;DHT22;47065;52.898;6.992;2023-06-01T12:41:27;15.00;99.90
61201;DHT22;47065;52.898;6.992;2023-06-01T12:43:56;15.00;99.90
61201;DHT22;47065;52.898;6.992;2023-06-01T12:48:49;15.00;99.90
61201;DHT22;47065;52.898;6.992;2023-06-01T12:51:16;15.10;99.90
61201;DHT22;47065;52.898;6.992;2023-06-01T12:53:42;15.10;99.90
61201;DHT22;47065;52.898;6.992;2023-06-01T12:56:08;15.20;99.90
61201;DHT22;47065;52.898;6.992;2023-06-01T12:58:34;15.20;99.90
61201;DHT22;47065;52.898;6.992;2023-06-01T13:01:00;15.20;99.90
61201;DHT22;47065;52.898;6.992;2023-06-01T13:03:26;15.20;99.90
61201;DHT22;47065;52.898;6.992;2023-06-01T13:05:52;15.20;99.90
61201;DHT22;47065;52.898;6.992;2023-06-01T13:08:17;15.20;99.90
61201;DHT22;47065;52.898;6.992;2023-06-01T13:10:44;15.10;99.90
61201;DHT22;47065;52.898;6.992;2023-06-01T13:13:10;15.10;99.90
61201;DHT22;47065;52.898;6.992;2023-06-01T13:15:42;15.10;99.90
61201;DHT22;47065;52.898;6.992;2023-06-01T13:18:08;15.10;99.90
61201;DHT22;47065;52.898;6.992;2023-06-01T13:20:35;15.00;99.90
61201;DHT22;47065;52.898;6.992;2023-06-01T13:23:01;15.10;99.90
61201;DHT22;47065;52.898;6.992;2023-06-01T13:25:27;15.00;99.90
61201;DHT22;47065;52.898;6.992;2023-06-01T13:27:52;15.00;99.90
61201;DHT22;47065;52.898;6.992;2023-06-01T13:30:18;15.00;99.90
61201;DHT22;47065;52.898;6.992;2023-06-01T13:32:44;14.90;99.90
61201;DHT22;47065;52.898;6.992;2023-06-01T13:35:10;14.90;99.90
61201;DHT22;47065;52.898;6.992;2023-06-01T13:37:39;14.80;99.90
61201;DHT22;47065;52.898;6.992;2023-06-01T13:40:07;14.80;99.90
61201;DHT22;47065;52.898;6.992;2023-06-01T13:42:32;14.80;99.90
61201;DHT22;47065;52.898;6.992;2023-06-01T13:45:01;14.70;99.90
61201;DHT22;47065;52.898;6.992;2023-06-01T13:47:27;14.70;99.90
61201;DHT22;47065;52.898;6.992;2023-06-01T13:49:52;14.70;99.90
61201;DHT22;47065;52.898;6.992;2023-06-01T13:52:18;14.60;99.90
61201;DHT22;47065;52.898;6.992;2023-06-01T13:54:44;14.50;99.90
61201;DHT22;47065;52.898;6.992;2023-06-01T13:57:10;14.40;99.90
61201;DHT22;47065;52.898;6.992;2023-06-01T13:59:36;14.40;99.90
61201;DHT22;47065;52.898;6.992;2023-06-01T14:02:02;14.30;99.90
61201;DHT22;47065;52.898;6.992;2023-06-01T14:04:29;14.20;99.90
61201;DHT22;47065;52.898;6.992;2023-06-01T14:06:55;14.10;99.90
61201;DHT22;47065;52.898;6.992;2023-06-01T14:09:22;14.10;99.90
61201;DHT22;47065;52.898;6.992;2023-06-01T14:11:47;14.10;99.90
61201;DHT22;47065;52.898;6.992;2023-06-01T14:14:13;14.10;99.90
61201;DHT22;47065;52.898;6.992;2023-06-01T14:16:39;14.10;99.90
61201;DHT22;47065;52.898;6.992;2023-06-01T14:19:05;14.10;99.90
61201;DHT22;47065;52.898;6.992;2023-06-01T14:21:31;14.20;99.90
61201;DHT22;47065;52.898;6.992;2023-06-01T14:23:58;14.10;99.90
61201;DHT22;47065;52.898;6.992;2023-06-01T14:26:24;14.10;99.90
61201;DHT22;47065;52.898;6.992;2023-06-01T14:28:50;14.10;99.90
61201;DHT22;47065;52.898;6.992;2023-06-01T14:31:15;14.00;99.90
61201;DHT22;47065;52.898;6.992;2023-06-01T14:33:41;14.00;99.90
61201;DHT22;47065;52.898;6.992;2023-06-01T14:36:07;14.00;99.90
61201;DHT22;47065;52.898;6.992;2023-06-01T14:38:33;14.00;99.90
61201;DHT22;47065;52.898;6.992;2023-06-01T14:40:59;14.00;99.90
61201;DHT22;47065;52.898;6.992;2023-06-01T14:43:24;14.00;99.90
61201;DHT22;47065;52.898;6.992;2023-06-01T14:45:50;14.00;99.90
61201;DHT22;47065;52.898;6.992;2023-06-01T14:48:16;14.10;99.90
61201;DHT22;47065;52.898;6.992;2023-06-01T14:50:41;14.10;99.90
61201;DHT22;47065;52.898;6.992;2023-06-01T14:53:07;14.10;99.90
61201;DHT22;47065;52.898;6.992;2023-06-01T14:55:33;14.10;99.90
61201;DHT22;47065;52.898;6.992;2023-06-01T14:57:58;14.20;99.90
61201;DHT22;47065;52.898;6.992;2023-06-01T15:00:24;14.20;99.90
61201;DHT22;47065;52.898;6.992;2023-06-01T15:02:50;14.10;99.90
61201;DHT22;47065;52.898;6.992;2023-06-01T15:05:16;14.20;99.90
61201;DHT22;47065;52.898;6.992;2023-06-01T15:07:41;14.20;99.90
61201;DHT22;47065;52.898;6.992;2023-06-01T15:10:07;14.20;99.90
61201;DHT22;47065;52.898;6.992;2023-06-01T15:12:35;14.20;99.90
61201;DHT22;47065;52.898;6.992;2023-06-01T15:15:01;14.20;99.90
61201;DHT22;47065;52.898;6.992;2023-06-01T15:17:27;14.20;99.90
61201;DHT22;47065;52.898;6.992;2023-06-01T15:19:52;14.10;99.90
61201;DHT22;47065;52.898;6.992;2023-06-01T15:22:18;14.10;99.90
61201;DHT22;47065;52.898;6.992;2023-06-01T15:24:44;14.10;99.90
61201;DHT22;47065;52.898;6.992;2023-06-01T15:27:10;14.10;99.90
61201;DHT22;47065;52.898;6.992;2023-06-01T15:29:35;14.00;99.90
61201;DHT22;47065;52.898;6.992;2023-06-01T15:32:01;14.10;99.90
61201;DHT22;47065;52.898;6.992;2023-06-01T15:34:27;14.10;99.90
61201;DHT22;47065;52.898;6.992;2023-06-01T15:36:53;14.20;99.90
61201;DHT22;47065;52.898;6.992;2023-06-01T15:39:21;14.20;99.90
61201;DHT22;47065;52.898;6.992;2023-06-01T15:41:47;14.20;99.90
61201;DHT22;47065;52.898;6.992;2023-06-01T15:44:12;14.10;99.90
61201;DHT22;47065;52.898;6.992;2023-06-01T15:46:38;14.10;99.90
61201;DHT22;47065;52.898;6.992;2023-06-01T15:49:04;14.10;99.90
61201;DHT22;47065;52.898;6.992;2023-06-01T15:51:30;14.10;99.90
61201;DHT22;47065;52.898;6.992;2023-06-01T15:53:56;14.10;99.90
61201;DHT22;47065;52.898;6.992;2023-06-01T15:56:22;14.10;99.90
61201;DHT22;47065;52.898;6.992;2023-06-01T15:58:47;14.10;99.90
61201;DHT22;47065;52.898;6.992;2023-06-01T16:01:16;14.10;99.90
61201;DHT22;47065;52.898;6.992;2023-06-01T16:03:43;14.00;99.90